sensor_id;sensor_type;location;lat;lon;timestamp;temperature;humidity
44579;DHT22;37422;51.402;0.016;2022-07-29T00:00:18;16.50;92.20
44579;DHT22;37422;51.402;0.016;2022-07-29T00:02:46;16.40;92.20
44579;DHT22;37422;51.402;0.016;2022-07-29T00:05:14;16.40;92.40
44579;DHT22;37422;51.402;0.016;2022-07-29T00:07:42;16.40;92.40
44579;DHT22;37422;51.402;0.016;2022-07-29T00:10:10;16.40;92.60
44579;DHT22;37422;51.402;0.016;2022-07-29T00:12:37;16.40;92.60
44579;DHT22;37422;51.402;0.016;2022-07-29T00:15:06;16.40;92.70
44579;DHT22;37422;51.402;0.016;2022-07-29T00:17:34;16.30;92.90
44579;DHT22;37422;51.402;0.016;2022-07-29T00:20:02;16.30;92.90
44579;DHT22;37422;51.402;0.016;2022-07-29T00:22:30;16.30;93.20
44579;DHT22;37422;51.402;0.016;2022-07-29T00:24:58;16.30;93.20
44579;DHT22;37422;51.402;0.016;2022-07-29T00:27:26;16.30;93.40
44579;DHT22;37422;51.402;0.016;2022-07-29T00:29:53;16.30;93.60
44579;DHT22;37422;51.402;0.016;2022-07-29T00:32:21;16.30;93.70
44579;DHT22;37422;51.402;0.016;2022-07-29T00:34:48;16.30;93.70
44579;DHT22;37422;51.402;0.016;2022-07-29T00:37:34;16.40;93.80
44579;DHT22;37422;51.402;0.016;2022-07-29T00:40:03;16.40;93.90
44579;DHT22;37422;51.402;0.016;2022-07-29T00:42:30;16.40;94.10
44579;DHT22;37422;51.402;0.016;2022-07-29T00:44:58;16.40;94.00
44579;DHT22;37422;51.402;0.016;2022-07-29T00:47:26;16.50;94.10
44579;DHT22;37422;51.402;0.016;2022-07-29T00:49:53;16.50;94.20
44579;DHT22;37422;51.402;0.016;2022-07-29T00:52:21;16.50;94.20
44579;DHT22;37422;51.402;0.016;2022-07-29T00:54:48;16.50;94.30
44579;DHT22;37422;51.402;0.016;2022-07-29T00:57:16;16.50;94.30
44579;DHT22;37422;51.402;0.016;2022-07-29T00:59:44;16.50;94.50
44579;DHT22;37422;51.402;0.016;2022-07-29T01:02:11;16.60;94.60
44579;DHT22;37422;51.402;0.016;2022-07-29T01:04:40;16.60;94.60
44579;DHT22;37422;51.402;0.016;2022-07-29T01:07:08;16.60;94.60
44579;DHT22;37422;51.402;0.016;2022-07-29T01:09:37;16.60;94.80
44579;DHT22;37422;51.402;0.016;2022-07-29T01:12:16;16.60;94.70
44579;DHT22;37422;51.402;0.016;2022-07-29T01:14:45;16.60;94.70
44579;DHT22;37422;51.402;0.016;2022-07-29T01:17:32;16.60;94.80
44579;DHT22;37422;51.402;0.016;2022-07-29T01:31:06;16.60;95.20
44579;DHT22;37422;51.402;0.016;2022-07-29T01:33:43;16.60;95.00
44579;DHT22;37422;51.402;0.016;2022-07-29T01:37:29;16.60;95.00
44579;DHT22;37422;51.402;0.016;2022-07-29T01:39:49;16.60;95.50
44579;DHT22;37422;51.402;0.016;2022-07-29T01:42:25;16.60;95.00
44579;DHT22;37422;51.402;0.016;2022-07-29T01:44:59;16.60;95.10
44579;DHT22;37422;51.402;0.016;2022-07-29T01:47:50;16.60;95.10
44579;DHT22;37422;51.402;0.016;2022-07-29T01:50:23;16.60;95.30
44579;DHT22;37422;51.402;0.016;2022-07-29T01:52:56;16.60;95.50
44579;DHT22;37422;51.402;0.016;2022-07-29T01:55:29;16.60;95.30
44579;DHT22;37422;51.402;0.016;2022-07-29T01:58:00;16.60;95.40
44579;DHT22;37422;51.402;0.016;2022-07-29T02:00:30;16.60;95.50
44579;DHT22;37422;51.402;0.016;2022-07-29T02:02:59;16.50;95.50
44579;DHT22;37422;51.402;0.016;2022-07-29T02:05:30;16.50;96.00
44579;DHT22;37422;51.402;0.016;2022-07-29T02:07:59;16.50;95.40
44579;DHT22;37422;51.402;0.016;2022-07-29T02:10:30;16.40;95.40
44579;DHT22;37422;51.402;0.016;2022-07-29T02:12:59;16.40;95.50
44579;DHT22;37422;51.402;0.016;2022-07-29T02:15:29;16.40;95.50
44579;DHT22;37422;51.402;0.016;2022-07-29T02:18:09;16.40;95.70
44579;DHT22;37422;51.402;0.016;2022-07-29T02:20:39;16.40;95.70
44579;DHT22;37422;51.402;0.016;2022-07-29T02:23:09;16.30;95.80
44579;DHT22;37422;51.402;0.016;2022-07-29T02:25:38;16.30;95.80
44579;DHT22;37422;51.402;0.016;2022-07-29T02:28:07;16.20;96.00
44579;DHT22;37422;51.402;0.016;2022-07-29T02:30:40;16.20;96.00
44579;DHT22;37422;51.402;0.016;2022-07-29T02:33:12;16.20;96.00
44579;DHT22;37422;51.402;0.016;2022-07-29T02:35:41;16.10;96.10
44579;DHT22;37422;51.402;0.016;2022-07-29T02:38:12;16.10;96.20
44579;DHT22;37422;51.402;0.016;2022-07-29T02:41:03;16.00;96.30
44579;DHT22;37422;51.402;0.016;2022-07-29T02:43:32;15.90;96.40
44579;DHT22;37422;51.402;0.016;2022-07-29T02:46:04;15.80;96.50
44579;DHT22;37422;51.402;0.016;2022-07-29T02:49:09;15.80;96.60
44579;DHT22;37422;51.402;0.016;2022-07-29T02:51:45;15.70;96.80
44579;DHT22;37422;51.402;0.016;2022-07-29T02:54:24;15.60;96.80
44579;DHT22;37422;51.402;0.016;2022-07-29T02:56:54;15.50;96.90
44579;DHT22;37422;51.402;0.016;2022-07-29T02:59:26;15.40;97.00
44579;DHT22;37422;51.402;0.016;2022-07-29T03:01:55;15.30;97.00
44579;DHT22;37422;51.402;0.016;2022-07-29T03:04:26;15.20;97.10
44579;DHT22;37422;51.402;0.016;2022-07-29T03:06:58;15.20;97.20
44579;DHT22;37422;51.402;0.016;2022-07-29T03:09:27;15.10;97.20
44579;DHT22;37422;51.402;0.016;2022-07-29T03:11:57;15.10;97.10
44579;DHT22;37422;51.402;0.016;2022-07-29T03:14:28;15.00;97.20
44579;DHT22;37422;51.402;0.016;2022-07-29T03:16:56;15.00;97.20
44579;DHT22;37422;51.402;0.016;2022-07-29T03:19:25;14.90;97.20
44579;DHT22;37422;51.402;0.016;2022-07-29T03:21:56;14.90;97.30
44579;DHT22;37422;51.402;0.016;2022-07-29T03:24:24;14.80;97.30
44579;DHT22;37422;51.402;0.016;2022-07-29T03:26:52;14.80;97.80
44579;DHT22;37422;51.402;0.016;2022-07-29T03:29:20;14.70;97.30
44579;DHT22;37422;51.402;0.016;2022-07-29T03:31:47;14.70;97.30
44579;DHT22;37422;51.402;0.016;2022-07-29T03:34:15;14.60;97.30
44579;DHT22;37422;51.402;0.016;2022-07-29T03:36:44;14.60;97.30
44579;DHT22;37422;51.402;0.016;2022-07-29T03:39:14;14.60;97.30
44579;DHT22;37422;51.402;0.016;2022-07-29T03:41:45;14.50;97.30
44579;DHT22;37422;51.402;0.016;2022-07-29T03:44:15;14.50;97.30
44579;DHT22;37422;51.402;0.016;2022-07-29T03:46:45;14.40;97.40
44579;DHT22;37422;51.402;0.016;2022-07-29T03:49:15;14.40;97.40
44579;DHT22;37422;51.402;0.016;2022-07-29T03:51:44;14.30;97.40
44579;DHT22;37422;51.402;0.016;2022-07-29T03:54:12;14.30;97.40
44579;DHT22;37422;51.402;0.016;2022-07-29T03:56:43;14.30;97.50
44579;DHT22;37422;51.402;0.016;2022-07-29T03:59:15;14.20;97.50
44579;DHT22;37422;51.402;0.016;2022-07-29T04:01:43;14.20;97.60
44579;DHT22;37422;51.402;0.016;2022-07-29T04:04:11;14.10;97.70
44579;DHT22;37422;51.402;0.016;2022-07-29T04:09:08;14.00;98.00
44579;DHT22;37422;51.402;0.016;2022-07-29T04:11:38;14.00;97.90
44579;DHT22;37422;51.402;0.016;2022-07-29T04:14:26;13.90;98.00
44579;DHT22;37422;51.402;0.016;2022-07-29T04:16:56;13.90;98.00
44579;DHT22;37422;51.402;0.016;2022-07-29T04:19:24;13.90;98.00
44579;DHT22;37422;51.402;0.016;2022-07-29T04:21:51;13.90;97.90
44579;DHT22;37422;51.402;0.016;2022-07-29T04:24:19;13.80;97.90
44579;DHT22;37422;51.402;0.016;2022-07-29T04:26:47;13.80;97.90
44579;DHT22;37422;51.402;0.016;2022-07-29T04:29:15;13.80;98.00
44579;DHT22;37422;51.402;0.016;2022-07-29T04:31:43;13.80;98.00
44579;DHT22;37422;51.402;0.016;2022-07-29T04:34:12;13.80;98.00
44579;DHT22;37422;51.402;0.016;2022-07-29T04:36:40;13.80;98.00
44579;DHT22;37422;51.402;0.016;2022-07-29T04:39:08;13.80;98.20
44579;DHT22;37422;51.402;0.016;2022-07-29T04:41:35;13.80;97.90
44579;DHT22;37422;51.402;0.016;2022-07-29T04:44:04;13.80;97.90
44579;DHT22;37422;51.402;0.016;2022-07-29T04:46:34;13.80;97.90
44579;DHT22;37422;51.402;0.016;2022-07-29T04:49:03;13.90;97.90
44579;DHT22;37422;51.402;0.016;2022-07-29T04:51:31;13.90;97.90
44579;DHT22;37422;51.402;0.016;2022-07-29T04:53:58;13.90;97.90
44579;DHT22;37422;51.402;0.016;2022-07-29T04:56:27;13.90;98.00
44579;DHT22;37422;51.402;0.016;2022-07-29T04:58:54;14.00;97.90
44579;DHT22;37422;51.402;0.016;2022-07-29T05:01:22;14.00;98.00
44579;DHT22;37422;51.402;0.016;2022-07-29T05:03:50;14.00;98.00
44579;DHT22;37422;51.402;0.016;2022-07-29T05:06:22;14.00;98.00
44579;DHT22;37422;51.402;0.016;2022-07-29T05:08:49;14.00;98.00
44579;DHT22;37422;51.402;0.016;2022-07-29T05:11:17;14.10;98.10
44579;DHT22;37422;51.402;0.016;2022-07-29T05:13:48;14.20;98.10
44579;DHT22;37422;51.402;0.016;2022-07-29T05:16:16;14.30;98.00
44579;DHT22;37422;51.402;0.016;2022-07-29T05:18:44;14.30;97.90
44579;DHT22;37422;51.402;0.016;2022-07-29T05:21:11;14.40;97.90
44579;DHT22;37422;51.402;0.016;2022-07-29T05:23:39;14.40;97.70
44579;DHT22;37422;51.402;0.016;2022-07-29T05:26:07;14.50;97.80
44579;DHT22;37422;51.402;0.016;2022-07-29T05:28:34;14.60;97.80
44579;DHT22;37422;51.402;0.016;2022-07-29T05:31:02;14.60;97.70
44579;DHT22;37422;51.402;0.016;2022-07-29T05:33:30;14.70;97.70
44579;DHT22;37422;51.402;0.016;2022-07-29T05:36:04;14.70;97.70
44579;DHT22;37422;51.402;0.016;2022-07-29T05:38:35;14.90;97.70
44579;DHT22;37422;51.402;0.016;2022-07-29T05:41:04;15.00;97.60
44579;DHT22;37422;51.402;0.016;2022-07-29T05:43:32;15.20;97.70
44579;DHT22;37422;51.402;0.016;2022-07-29T05:46:00;15.30;97.60
44579;DHT22;37422;51.402;0.016;2022-07-29T05:48:28;15.60;97.50
44579;DHT22;37422;51.402;0.016;2022-07-29T05:50:56;15.70;97.40
44579;DHT22;37422;51.402;0.016;2022-07-29T05:53:23;16.00;97.30
44579;DHT22;37422;51.402;0.016;2022-07-29T05:55:51;16.30;97.10
44579;DHT22;37422;51.402;0.016;2022-07-29T05:58:19;16.50;96.90
44579;DHT22;37422;51.402;0.016;2022-07-29T06:00:47;16.70;96.70
44579;DHT22;37422;51.402;0.016;2022-07-29T06:03:15;17.00;96.60
44579;DHT22;37422;51.402;0.016;2022-07-29T06:05:43;17.30;96.30
44579;DHT22;37422;51.402;0.016;2022-07-29T06:08:10;17.50;96.10
44579;DHT22;37422;51.402;0.016;2022-07-29T06:10:38;17.70;95.90
44579;DHT22;37422;51.402;0.016;2022-07-29T06:13:06;17.90;95.90
44579;DHT22;37422;51.402;0.016;2022-07-29T06:15:33;18.20;96.00
44579;DHT22;37422;51.402;0.016;2022-07-29T06:18:01;18.40;95.90
44579;DHT22;37422;51.402;0.016;2022-07-29T06:20:30;18.70;95.80
44579;DHT22;37422;51.402;0.016;2022-07-29T06:22:59;18.80;95.70
44579;DHT22;37422;51.402;0.016;2022-07-29T06:25:27;19.00;95.70
44579;DHT22;37422;51.402;0.016;2022-07-29T06:27:59;19.30;95.80
44579;DHT22;37422;51.402;0.016;2022-07-29T06:30:27;19.50;95.50
44579;DHT22;37422;51.402;0.016;2022-07-29T06:32:56;19.80;95.40
44579;DHT22;37422;51.402;0.016;2022-07-29T06:35:23;20.00;95.20
44579;DHT22;37422;51.402;0.016;2022-07-29T06:38:09;20.30;95.10
44579;DHT22;37422;51.402;0.016;2022-07-29T06:40:57;20.70;95.20
44579;DHT22;37422;51.402;0.016;2022-07-29T06:43:36;21.10;95.00
44579;DHT22;37422;51.402;0.016;2022-07-29T06:46:18;21.40;94.50
44579;DHT22;37422;51.402;0.016;2022-07-29T06:48:47;21.80;92.80
44579;DHT22;37422;51.402;0.016;2022-07-29T06:51:15;22.10;94.20
44579;DHT22;37422;51.402;0.016;2022-07-29T06:53:51;22.40;93.80
44579;DHT22;37422;51.402;0.016;2022-07-29T06:56:30;22.60;93.50
44579;DHT22;37422;51.402;0.016;2022-07-29T06:59:07;22.90;93.10
44579;DHT22;37422;51.402;0.016;2022-07-29T07:01:36;23.20;92.70
44579;DHT22;37422;51.402;0.016;2022-07-29T07:04:04;23.30;92.10
44579;DHT22;37422;51.402;0.016;2022-07-29T07:06:32;23.40;91.90
44579;DHT22;37422;51.402;0.016;2022-07-29T07:09:00;23.50;91.60
44579;DHT22;37422;51.402;0.016;2022-07-29T07:11:28;23.60;91.30
44579;DHT22;37422;51.402;0.016;2022-07-29T07:13:56;23.70;91.20
44579;DHT22;37422;51.402;0.016;2022-07-29T07:16:30;23.90;91.10
44579;DHT22;37422;51.402;0.016;2022-07-29T07:18:58;24.00;90.50
44579;DHT22;37422;51.402;0.016;2022-07-29T07:21:29;23.90;90.30
44579;DHT22;37422;51.402;0.016;2022-07-29T07:23:58;23.70;89.80
44579;DHT22;37422;51.402;0.016;2022-07-29T07:26:27;23.40;89.10
44579;DHT22;37422;51.402;0.016;2022-07-29T07:28:55;23.10;89.00
44579;DHT22;37422;51.402;0.016;2022-07-29T07:31:23;22.80;89.50
44579;DHT22;37422;51.402;0.016;2022-07-29T07:33:51;22.50;90.00
44579;DHT22;37422;51.402;0.016;2022-07-29T07:36:20;22.40;90.20
44579;DHT22;37422;51.402;0.016;2022-07-29T07:38:48;22.20;90.30
44579;DHT22;37422;51.402;0.016;2022-07-29T07:41:16;22.20;90.60
44579;DHT22;37422;51.402;0.016;2022-07-29T07:43:43;22.30;91.30
44579;DHT22;37422;51.402;0.016;2022-07-29T07:46:11;22.60;91.20
44579;DHT22;37422;51.402;0.016;2022-07-29T07:48:39;23.10;91.30
44579;DHT22;37422;51.402;0.016;2022-07-29T07:51:07;23.60;91.20
44579;DHT22;37422;51.402;0.016;2022-07-29T07:53:35;24.10;90.80
44579;DHT22;37422;51.402;0.016;2022-07-29T07:56:02;24.40;90.30
44579;DHT22;37422;51.402;0.016;2022-07-29T07:58:38;24.60;89.30
44579;DHT22;37422;51.402;0.016;2022-07-29T08:01:07;24.40;87.30
44579;DHT22;37422;51.402;0.016;2022-07-29T08:03:35;24.30;86.80
44579;DHT22;37422;51.402;0.016;2022-07-29T08:06:03;24.10;85.90
44579;DHT22;37422;51.402;0.016;2022-07-29T08:08:31;23.90;85.90
44579;DHT22;37422;51.402;0.016;2022-07-29T08:10:59;23.90;86.10
44579;DHT22;37422;51.402;0.016;2022-07-29T08:13:36;23.90;85.60
44579;DHT22;37422;51.402;0.016;2022-07-29T08:16:06;24.00;84.60
44579;DHT22;37422;51.402;0.016;2022-07-29T08:18:43;24.20;84.10
44579;DHT22;37422;51.402;0.016;2022-07-29T08:21:13;24.40;82.50
44579;DHT22;37422;51.402;0.016;2022-07-29T08:23:42;24.60;81.60
44579;DHT22;37422;51.402;0.016;2022-07-29T08:26:25;24.80;79.50
44579;DHT22;37422;51.402;0.016;2022-07-29T08:28:52;25.10;80.90
44579;DHT22;37422;51.402;0.016;2022-07-29T08:31:20;25.50;79.80
44579;DHT22;37422;51.402;0.016;2022-07-29T08:33:48;25.80;78.40
44579;DHT22;37422;51.402;0.016;2022-07-29T08:36:15;26.00;78.00
44579;DHT22;37422;51.402;0.016;2022-07-29T08:38:43;26.20;77.20
44579;DHT22;37422;51.402;0.016;2022-07-29T08:41:11;26.40;75.30
44579;DHT22;37422;51.402;0.016;2022-07-29T08:43:40;26.60;73.70
44579;DHT22;37422;51.402;0.016;2022-07-29T08:46:08;26.70;72.40
44579;DHT22;37422;51.402;0.016;2022-07-29T08:48:45;26.80;72.60
44579;DHT22;37422;51.402;0.016;2022-07-29T08:51:19;26.80;72.30
44579;DHT22;37422;51.402;0.016;2022-07-29T08:53:48;26.90;70.70
44579;DHT22;37422;51.402;0.016;2022-07-29T08:56:17;27.00;71.00
44579;DHT22;37422;51.402;0.016;2022-07-29T08:58:46;27.20;71.20
44579;DHT22;37422;51.402;0.016;2022-07-29T09:01:22;27.40;70.90
44579;DHT22;37422;51.402;0.016;2022-07-29T09:04:05;27.60;68.20
44579;DHT22;37422;51.402;0.016;2022-07-29T09:06:37;27.70;68.50
44579;DHT22;37422;51.402;0.016;2022-07-29T09:09:07;27.70;67.40
44579;DHT22;37422;51.402;0.016;2022-07-29T09:11:36;28.00;67.50
44579;DHT22;37422;51.402;0.016;2022-07-29T09:14:05;28.10;66.60
44579;DHT22;37422;51.402;0.016;2022-07-29T09:16:54;28.20;64.90
44579;DHT22;37422;51.402;0.016;2022-07-29T09:19:28;28.30;61.40
44579;DHT22;37422;51.402;0.016;2022-07-29T09:21:58;28.50;63.80
44579;DHT22;37422;51.402;0.016;2022-07-29T09:24:27;28.70;63.30
44579;DHT22;37422;51.402;0.016;2022-07-29T09:26:54;28.70;63.00
44579;DHT22;37422;51.402;0.016;2022-07-29T09:29:26;28.70;62.80
44579;DHT22;37422;51.402;0.016;2022-07-29T09:32:00;28.70;62.50
44579;DHT22;37422;51.402;0.016;2022-07-29T09:34:30;28.80;62.10
44579;DHT22;37422;51.402;0.016;2022-07-29T09:36:59;28.90;62.50
44579;DHT22;37422;51.402;0.016;2022-07-29T09:39:38;29.00;62.10
44579;DHT22;37422;51.402;0.016;2022-07-29T09:42:13;29.20;61.40
44579;DHT22;37422;51.402;0.016;2022-07-29T09:44:54;29.50;62.30
44579;DHT22;37422;51.402;0.016;2022-07-29T09:47:22;29.80;61.70
44579;DHT22;37422;51.402;0.016;2022-07-29T09:49:57;30.00;62.00
44579;DHT22;37422;51.402;0.016;2022-07-29T09:52:28;30.10;60.10
44579;DHT22;37422;51.402;0.016;2022-07-29T09:55:09;30.20;58.80
44579;DHT22;37422;51.402;0.016;2022-07-29T09:57:45;30.10;57.90
44579;DHT22;37422;51.402;0.016;2022-07-29T10:00:16;30.10;59.40
44579;DHT22;37422;51.402;0.016;2022-07-29T10:02:46;30.30;59.40
44579;DHT22;37422;51.402;0.016;2022-07-29T10:05:25;30.60;59.00
44579;DHT22;37422;51.402;0.016;2022-07-29T10:08:03;30.70;56.80
44579;DHT22;37422;51.402;0.016;2022-07-29T10:10:36;30.70;57.50
44579;DHT22;37422;51.402;0.016;2022-07-29T10:13:12;30.90;57.20
44579;DHT22;37422;51.402;0.016;2022-07-29T10:15:43;30.90;56.40
44579;DHT22;37422;51.402;0.016;2022-07-29T10:18:13;30.60;55.50
44579;DHT22;37422;51.402;0.016;2022-07-29T10:20:41;30.50;55.60
44579;DHT22;37422;51.402;0.016;2022-07-29T10:23:09;30.30;55.40
44579;DHT22;37422;51.402;0.016;2022-07-29T10:25:37;30.10;55.50
44579;DHT22;37422;51.402;0.016;2022-07-29T10:28:05;30.20;55.90
44579;DHT22;37422;51.402;0.016;2022-07-29T10:30:33;30.30;55.80
44579;DHT22;37422;51.402;0.016;2022-07-29T10:36:41;31.10;54.50
44579;DHT22;37422;51.402;0.016;2022-07-29T10:42:29;31.50;52.60
44579;DHT22;37422;51.402;0.016;2022-07-29T10:45:02;31.60;54.50
44579;DHT22;37422;51.402;0.016;2022-07-29T10:47:31;31.70;54.40
44579;DHT22;37422;51.402;0.016;2022-07-29T10:50:03;31.70;53.90
44579;DHT22;37422;51.402;0.016;2022-07-29T10:55:37;32.20;52.80
44579;DHT22;37422;51.402;0.016;2022-07-29T10:58:20;32.30;52.20
44579;DHT22;37422;51.402;0.016;2022-07-29T11:00:50;32.50;51.30
44579;DHT22;37422;51.402;0.016;2022-07-29T11:06:17;32.70;51.60
44579;DHT22;37422;51.402;0.016;2022-07-29T11:09:15;32.70;51.60
44579;DHT22;37422;51.402;0.016;2022-07-29T11:11:52;32.90;49.70
44579;DHT22;37422;51.402;0.016;2022-07-29T11:17:19;33.20;50.20
44579;DHT22;37422;51.402;0.016;2022-07-29T11:19:47;33.50;50.30
44579;DHT22;37422;51.402;0.016;2022-07-29T11:22:35;33.80;51.30
44579;DHT22;37422;51.402;0.016;2022-07-29T11:25:16;34.00;48.70
44579;DHT22;37422;51.402;0.016;2022-07-29T11:27:44;34.10;49.40
44579;DHT22;37422;51.402;0.016;2022-07-29T11:30:14;34.10;49.10
44579;DHT22;37422;51.402;0.016;2022-07-29T11:32:43;34.10;48.60
44579;DHT22;37422;51.402;0.016;2022-07-29T11:35:18;33.90;48.50
44579;DHT22;37422;51.402;0.016;2022-07-29T11:38:26;33.70;48.50
44579;DHT22;37422;51.402;0.016;2022-07-29T11:41:27;33.50;46.20
44579;DHT22;37422;51.402;0.016;2022-07-29T11:43:59;33.60;48.10
44579;DHT22;37422;51.402;0.016;2022-07-29T11:46:48;33.70;48.60
44579;DHT22;37422;51.402;0.016;2022-07-29T11:49:25;33.90;46.80
44579;DHT22;37422;51.402;0.016;2022-07-29T11:52:00;34.20;48.30
44579;DHT22;37422;51.402;0.016;2022-07-29T11:54:33;34.60;48.40
44579;DHT22;37422;51.402;0.016;2022-07-29T11:57:21;34.80;47.20
44579;DHT22;37422;51.402;0.016;2022-07-29T12:00:06;34.70;47.40
44579;DHT22;37422;51.402;0.016;2022-07-29T12:02:42;34.80;47.70
44579;DHT22;37422;51.402;0.016;2022-07-29T12:05:15;34.50;47.30
44579;DHT22;37422;51.402;0.016;2022-07-29T12:10:41;34.10;47.80
44579;DHT22;37422;51.402;0.016;2022-07-29T12:13:10;34.30;48.50
44579;DHT22;37422;51.402;0.016;2022-07-29T12:15:39;34.60;48.00
44579;DHT22;37422;51.402;0.016;2022-07-29T12:18:18;34.80;47.80
44579;DHT22;37422;51.402;0.016;2022-07-29T12:21:00;35.00;47.30
44579;DHT22;37422;51.402;0.016;2022-07-29T12:23:32;35.10;45.90
44579;DHT22;37422;51.402;0.016;2022-07-29T12:26:05;34.80;46.60
44579;DHT22;37422;51.402;0.016;2022-07-29T12:28:38;34.30;46.20
44579;DHT22;37422;51.402;0.016;2022-07-29T12:31:13;34.10;46.80
44579;DHT22;37422;51.402;0.016;2022-07-29T12:34:01;33.90;46.00
44579;DHT22;37422;51.402;0.016;2022-07-29T12:36:29;34.10;46.80
44579;DHT22;37422;51.402;0.016;2022-07-29T12:38:56;34.40;47.10
44579;DHT22;37422;51.402;0.016;2022-07-29T12:41:24;34.90;47.30
44579;DHT22;37422;51.402;0.016;2022-07-29T12:43:53;35.40;47.00
44579;DHT22;37422;51.402;0.016;2022-07-29T12:46:21;35.60;46.70
44579;DHT22;37422;51.402;0.016;2022-07-29T12:48:53;35.70;46.30
44579;DHT22;37422;51.402;0.016;2022-07-29T12:51:34;35.60;44.70
44579;DHT22;37422;51.402;0.016;2022-07-29T12:54:14;35.70;44.30
44579;DHT22;37422;51.402;0.016;2022-07-29T12:56:44;35.70;44.40
44579;DHT22;37422;51.402;0.016;2022-07-29T12:59:22;35.70;45.10
44579;DHT22;37422;51.402;0.016;2022-07-29T13:01:51;35.50;44.10
44579;DHT22;37422;51.402;0.016;2022-07-29T13:04:30;35.10;44.60
44579;DHT22;37422;51.402;0.016;2022-07-29T13:07:08;34.90;44.40
44579;DHT22;37422;51.402;0.016;2022-07-29T13:09:44;35.00;44.10
44579;DHT22;37422;51.402;0.016;2022-07-29T13:12:15;35.00;45.50
44579;DHT22;37422;51.402;0.016;2022-07-29T13:14:46;34.60;44.90
44579;DHT22;37422;51.402;0.016;2022-07-29T13:17:20;34.30;44.50
44579;DHT22;37422;51.402;0.016;2022-07-29T13:20:05;33.90;44.70
44579;DHT22;37422;51.402;0.016;2022-07-29T13:22:36;33.80;45.90
44579;DHT22;37422;51.402;0.016;2022-07-29T13:25:04;33.90;45.50
44579;DHT22;37422;51.402;0.016;2022-07-29T13:27:38;34.10;45.60
44579;DHT22;37422;51.402;0.016;2022-07-29T13:30:08;34.10;44.50
44579;DHT22;37422;51.402;0.016;2022-07-29T13:32:36;33.80;45.30
44579;DHT22;37422;51.402;0.016;2022-07-29T13:35:07;33.50;45.40
44579;DHT22;37422;51.402;0.016;2022-07-29T13:37:36;33.00;45.40
44579;DHT22;37422;51.402;0.016;2022-07-29T13:40:07;32.70;46.10
44579;DHT22;37422;51.402;0.016;2022-07-29T13:42:35;33.00;46.20
44579;DHT22;37422;51.402;0.016;2022-07-29T13:45:04;33.60;46.90
44579;DHT22;37422;51.402;0.016;2022-07-29T13:47:33;34.30;46.40
44579;DHT22;37422;51.402;0.016;2022-07-29T13:50:02;35.10;45.90
44579;DHT22;37422;51.402;0.016;2022-07-29T13:52:34;35.70;45.30
44579;DHT22;37422;51.402;0.016;2022-07-29T13:55:02;36.00;44.90
44579;DHT22;37422;51.402;0.016;2022-07-29T13:57:30;35.70;44.20
44579;DHT22;37422;51.402;0.016;2022-07-29T13:59:57;35.10;43.80
44579;DHT22;37422;51.402;0.016;2022-07-29T14:02:25;34.20;43.90
44579;DHT22;37422;51.402;0.016;2022-07-29T14:04:55;33.50;44.00
44579;DHT22;37422;51.402;0.016;2022-07-29T14:07:23;33.30;44.30
44579;DHT22;37422;51.402;0.016;2022-07-29T14:09:51;33.30;44.60
44579;DHT22;37422;51.402;0.016;2022-07-29T14:12:19;33.30;44.50
44579;DHT22;37422;51.402;0.016;2022-07-29T14:14:46;33.70;44.50
44579;DHT22;37422;51.402;0.016;2022-07-29T14:17:15;33.90;44.00
44579;DHT22;37422;51.402;0.016;2022-07-29T14:19:42;33.60;44.40
44579;DHT22;37422;51.402;0.016;2022-07-29T14:22:10;33.80;44.50
44579;DHT22;37422;51.402;0.016;2022-07-29T14:24:39;34.20;44.50
44579;DHT22;37422;51.402;0.016;2022-07-29T14:27:07;34.70;44.50
44579;DHT22;37422;51.402;0.016;2022-07-29T14:29:36;35.20;44.80
44579;DHT22;37422;51.402;0.016;2022-07-29T14:32:05;35.70;44.40
44579;DHT22;37422;51.402;0.016;2022-07-29T14:34:35;36.10;43.50
44579;DHT22;37422;51.402;0.016;2022-07-29T14:37:04;36.60;44.40
44579;DHT22;37422;51.402;0.016;2022-07-29T14:39:34;36.90;43.70
44579;DHT22;37422;51.402;0.016;2022-07-29T14:42:10;37.10;43.50
44579;DHT22;37422;51.402;0.016;2022-07-29T14:44:40;37.00;43.10
44579;DHT22;37422;51.402;0.016;2022-07-29T14:47:09;37.20;44.20
44579;DHT22;37422;51.402;0.016;2022-07-29T14:49:36;37.30;43.50
44579;DHT22;37422;51.402;0.016;2022-07-29T14:52:04;37.40;43.00
44579;DHT22;37422;51.402;0.016;2022-07-29T14:54:32;37.30;43.10
44579;DHT22;37422;51.402;0.016;2022-07-29T14:56:59;37.00;42.80
44579;DHT22;37422;51.402;0.016;2022-07-29T14:59:27;36.50;42.50
44579;DHT22;37422;51.402;0.016;2022-07-29T15:01:55;35.90;42.40
44579;DHT22;37422;51.402;0.016;2022-07-29T15:04:23;35.30;42.70
44579;DHT22;37422;51.402;0.016;2022-07-29T15:06:51;34.60;42.80
44579;DHT22;37422;51.402;0.016;2022-07-29T15:09:19;34.20;43.00
44579;DHT22;37422;51.402;0.016;2022-07-29T15:11:47;34.20;42.90
44579;DHT22;37422;51.402;0.016;2022-07-29T15:14:14;34.40;42.90
44579;DHT22;37422;51.402;0.016;2022-07-29T15:16:42;34.80;42.90
44579;DHT22;37422;51.402;0.016;2022-07-29T15:19:14;35.40;43.20
44579;DHT22;37422;51.402;0.016;2022-07-29T15:21:42;35.90;42.50
44579;DHT22;37422;51.402;0.016;2022-07-29T15:24:16;36.20;42.00
44579;DHT22;37422;51.402;0.016;2022-07-29T15:26:45;36.00;41.70
44579;DHT22;37422;51.402;0.016;2022-07-29T15:29:13;35.40;41.90
44579;DHT22;37422;51.402;0.016;2022-07-29T15:31:41;34.90;42.20
44579;DHT22;37422;51.402;0.016;2022-07-29T15:34:09;34.70;42.30
44579;DHT22;37422;51.402;0.016;2022-07-29T15:36:37;34.40;42.50
44579;DHT22;37422;51.402;0.016;2022-07-29T15:39:21;34.00;42.60
44579;DHT22;37422;51.402;0.016;2022-07-29T15:41:50;33.40;42.80
44579;DHT22;37422;51.402;0.016;2022-07-29T15:44:18;32.90;42.90
44579;DHT22;37422;51.402;0.016;2022-07-29T15:46:48;32.40;43.30
44579;DHT22;37422;51.402;0.016;2022-07-29T15:49:35;31.90;43.80
44579;DHT22;37422;51.402;0.016;2022-07-29T15:52:19;31.60;44.00
44579;DHT22;37422;51.402;0.016;2022-07-29T15:54:56;31.60;43.50
44579;DHT22;37422;51.402;0.016;2022-07-29T15:57:27;31.50;43.60
44579;DHT22;37422;51.402;0.016;2022-07-29T15:59:58;31.20;44.10
44579;DHT22;37422;51.402;0.016;2022-07-29T16:02:25;30.90;44.20
44579;DHT22;37422;51.402;0.016;2022-07-29T16:04:53;30.60;44.50
44579;DHT22;37422;51.402;0.016;2022-07-29T16:07:21;30.30;44.80
44579;DHT22;37422;51.402;0.016;2022-07-29T16:09:51;30.00;45.00
44579;DHT22;37422;51.402;0.016;2022-07-29T16:12:23;29.70;45.40
44579;DHT22;37422;51.402;0.016;2022-07-29T16:14:50;29.40;45.50
44579;DHT22;37422;51.402;0.016;2022-07-29T16:17:19;29.30;45.60
44579;DHT22;37422;51.402;0.016;2022-07-29T16:19:47;29.10;45.80
44579;DHT22;37422;51.402;0.016;2022-07-29T16:22:15;28.90;46.10
44579;DHT22;37422;51.402;0.016;2022-07-29T16:24:42;28.70;46.20
44579;DHT22;37422;51.402;0.016;2022-07-29T16:27:10;28.60;46.20